createdAt,value
2018-03-08T00:00:07.527Z,78.20
2018-03-08T00:01:07.521Z,78.39
2018-03-08T00:02:07.520Z,78.67
2018-03-08T00:03:07.513Z,78.58
2018-03-08T00:04:07.507Z,78.67
2018-03-08T00:05:07.498Z,78.77
2018-03-08T00:06:07.496Z,78.58
2018-03-08T00:07:07.489Z,78.77
2018-03-08T00:08:07.488Z,78.58
2018-03-08T00:09:07.477Z,78.67
2018-03-08T00:10:07.473Z,78.77
2018-03-08T00:11:07.467Z,78.67
2018-03-08T00:12:07.462Z,78.58
2018-03-08T00:13:07.456Z,78.67
2018-03-08T00:14:07.452Z,78.87
2018-03-08T00:15:07.446Z,78.96
2018-03-08T00:16:07.440Z,79.06
2018-03-08T00:17:07.435Z,79.06
2018-03-08T00:18:07.429Z,79.44
2018-03-08T00:19:07.424Z,79.63
2018-03-08T00:20:07.418Z,79.06
2018-03-08T00:21:07.412Z,79.72
2018-03-08T00:22:07.408Z,79.53
2018-03-08T00:23:07.400Z,79.63
2018-03-08T00:24:07.396Z,80.29
2018-03-08T00:25:07.389Z,80.48
2018-03-08T00:26:07.384Z,80.76
2018-03-08T00:27:07.382Z,80.57
2018-03-08T00:28:07.377Z,80.76
2018-03-08T00:29:07.368Z,80.57
2018-03-08T00:30:07.362Z,80.19
2018-03-08T00:31:07.357Z,80.48
2018-03-08T00:32:07.351Z,80.57
2018-03-08T00:33:07.346Z,80.10
2018-03-08T00:34:07.340Z,80.76
2018-03-08T00:35:07.335Z,80.57
2018-03-08T00:36:07.330Z,81.14
2018-03-08T00:37:07.322Z,80.86
2018-03-08T00:38:07.320Z,81.33
2018-03-08T00:39:07.314Z,81.43
2018-03-08T00:40:07.307Z,81.33
2018-03-08T00:41:07.304Z,81.14
2018-03-08T00:42:07.296Z,81.14
2018-03-08T00:43:07.289Z,81.33
2018-03-08T00:44:07.284Z,81.33
2018-03-08T00:45:07.283Z,81.76
2018-03-08T00:46:07.273Z,82.28
2018-03-08T00:47:07.272Z,82.47
2018-03-08T00:48:07.263Z,82.28
2018-03-08T00:49:07.258Z,82.66
2018-03-08T00:50:07.249Z,82.28
2018-03-08T00:51:07.244Z,81.99
2018-03-08T00:52:07.238Z,81.99
2018-03-08T00:53:07.231Z,81.43
2018-03-08T00:54:07.226Z,81.81
2018-03-08T00:55:07.220Z,81.86
2018-03-08T00:56:07.216Z,81.86
2018-03-08T00:57:07.212Z,82.14
2018-03-08T00:58:07.203Z,81.95
2018-03-08T00:59:07.200Z,82.05
2018-03-08T01:00:07.191Z,82.24
2018-03-08T01:01:07.185Z,81.86
2018-03-08T01:02:07.187Z,81.76
2018-03-08T01:03:07.174Z,81.76
2018-03-08T01:04:07.169Z,82.24
2018-03-08T01:05:07.163Z,82.24
2018-03-08T01:06:07.157Z,82.43
2018-03-08T01:07:07.150Z,83.18
2018-03-08T01:08:07.146Z,83.09
2018-03-08T01:09:07.139Z,83.28
2018-03-08T01:10:07.134Z,82.62
2018-03-08T01:11:07.128Z,83.00
2018-03-08T01:12:07.122Z,82.81
2018-03-08T01:13:07.116Z,82.71
2018-03-08T01:14:07.110Z,82.43
2018-03-08T01:15:07.107Z,81.95
2018-03-08T01:16:07.100Z,82.14
2018-03-08T01:17:07.093Z,82.62
2018-03-08T01:18:07.088Z,82.71
2018-03-08T01:19:07.083Z,83.09
2018-03-08T01:20:07.078Z,83.00
2018-03-08T01:21:07.069Z,82.62
2018-03-08T01:22:07.064Z,82.05
2018-03-08T01:23:07.058Z,81.67
2018-03-08T01:24:07.053Z,80.91
2018-03-08T01:25:07.047Z,80.82
2018-03-08T01:26:07.041Z,81.57
2018-03-08T01:27:07.035Z,80.53
2018-03-08T01:28:07.029Z,80.34
2018-03-08T01:29:07.023Z,79.39
2018-03-08T01:30:07.018Z,79.49
2018-03-08T01:31:07.010Z,79.68
2018-03-08T01:32:07.010Z,79.49
2018-03-08T01:33:06.999Z,79.06
2018-03-08T01:34:06.994Z,78.73
2018-03-08T01:35:06.988Z,78.35
2018-03-08T01:36:06.986Z,79.15
2018-03-08T01:37:06.976Z,79.15
2018-03-08T01:38:06.971Z,78.77
2018-03-08T01:39:06.964Z,77.88
2018-03-08T01:41:06.952Z,77.78
2018-03-08T01:42:06.948Z,77.83
2018-03-08T01:43:06.942Z,78.20
2018-03-08T01:44:06.936Z,77.73
2018-03-08T01:45:06.929Z,77.45
2018-03-08T01:46:06.923Z,77.54
2018-03-08T01:47:06.917Z,77.25
2018-03-08T01:48:06.912Z,77.06
2018-03-08T01:49:06.907Z,76.87
2018-03-08T01:50:06.898Z,77.64
2018-03-08T01:51:06.894Z,77.45
2018-03-08T01:52:06.889Z,77.45
2018-03-08T01:53:06.882Z,77.54
2018-03-08T01:54:06.878Z,77.64
2018-03-08T01:55:06.871Z,77.64
2018-03-08T01:56:06.866Z,78.02
2018-03-08T01:57:06.860Z,78.02
2018-03-08T01:58:06.853Z,78.20
2018-03-08T01:59:06.849Z,78.11
2018-03-08T02:00:06.842Z,78.20
2018-03-08T02:01:06.837Z,78.20
2018-03-08T02:02:06.831Z,77.92
2018-03-08T02:03:06.830Z,78.02
2018-03-08T02:04:06.821Z,77.92
2018-03-08T02:05:06.815Z,78.39
2018-03-08T02:06:06.810Z,78.58
2018-03-08T02:07:06.805Z,78.58
2018-03-08T02:08:06.800Z,78.67
2018-03-08T02:09:06.794Z,78.20
2018-03-08T02:10:06.787Z,78.02
2018-03-08T02:11:06.782Z,78.39
2018-03-08T02:12:06.777Z,77.92
2018-03-08T02:13:06.771Z,78.58
2018-03-08T02:14:06.765Z,78.20
2018-03-08T02:15:06.759Z,77.73
2018-03-08T02:16:06.755Z,77.92
2018-03-08T02:17:06.749Z,77.92
2018-03-08T02:18:06.742Z,77.45
2018-03-08T02:19:06.738Z,77.06
2018-03-08T02:20:06.733Z,77.45
2018-03-08T02:21:06.727Z,77.45
2018-03-08T02:22:06.722Z,77.92
2018-03-08T02:23:06.715Z,77.83
2018-03-08T02:24:06.711Z,78.58
2018-03-08T02:25:06.704Z,78.87
2018-03-08T02:26:06.699Z,79.53
2018-03-08T02:27:06.694Z,79.58
2018-03-08T02:28:06.688Z,79.68
2018-03-08T02:29:06.682Z,79.39
2018-03-08T02:30:06.693Z,79.72
2018-03-08T02:31:06.674Z,79.72
2018-03-08T02:32:06.668Z,79.53
2018-03-08T02:33:06.659Z,79.58
2018-03-08T02:34:06.655Z,80.15
2018-03-08T02:35:06.653Z,80.34
2018-03-08T02:36:06.644Z,80.53
2018-03-08T02:37:06.637Z,80.34
2018-03-08T02:38:06.631Z,80.63
2018-03-08T02:39:06.626Z,81.01
2018-03-08T02:40:06.619Z,80.44
2018-03-08T02:41:06.614Z,79.68
2018-03-08T02:42:06.609Z,79.53
2018-03-08T02:43:06.603Z,79.58
2018-03-08T02:44:06.595Z,79.91
2018-03-08T02:45:06.590Z,80.38
2018-03-08T02:46:06.585Z,80.06
2018-03-08T02:47:06.580Z,80.29
2018-03-08T02:48:06.576Z,79.63
2018-03-08T02:49:06.568Z,79.15
2018-03-08T02:50:06.564Z,78.87
2018-03-08T02:51:06.562Z,78.96
2018-03-08T02:52:06.551Z,79.15
2018-03-08T02:53:06.545Z,78.67
2018-03-08T02:54:06.545Z,79.06
2018-03-08T02:55:06.536Z,79.53
2018-03-08T02:56:06.529Z,79.53
2018-03-08T02:57:06.521Z,79.72
2018-03-08T02:58:06.515Z,79.68
2018-03-08T02:59:06.513Z,79.72
2018-03-08T03:00:06.505Z,80.53
2018-03-08T03:01:06.499Z,80.34
2018-03-08T03:02:06.495Z,80.19
2018-03-08T03:03:06.489Z,79.82
2018-03-08T03:04:06.483Z,79.72
2018-03-08T03:05:06.477Z,79.34
2018-03-08T03:06:06.470Z,79.63
2018-03-08T03:07:06.465Z,79.63
2018-03-08T03:08:06.462Z,79.72
2018-03-08T03:09:06.453Z,79.63
2018-03-08T03:10:06.447Z,78.87
2018-03-08T03:11:06.456Z,79.34
2018-03-08T03:12:06.436Z,78.67
2018-03-08T03:13:06.428Z,78.87
2018-03-08T03:14:06.424Z,78.49
2018-03-08T03:15:06.419Z,78.39
2018-03-08T03:16:06.415Z,77.92
2018-03-08T03:17:06.406Z,77.92
2018-03-08T03:18:06.401Z,78.20
2018-03-08T03:19:06.395Z,78.49
2018-03-08T03:20:06.391Z,78.20
2018-03-08T03:21:06.385Z,78.58
2018-03-08T03:22:06.379Z,78.58
2018-03-08T03:23:06.374Z,78.67
2018-03-08T03:24:06.368Z,79.25
2018-03-08T03:25:06.364Z,79.06
2018-03-08T03:26:06.357Z,79.44
2018-03-08T03:27:06.352Z,79.63
2018-03-08T03:28:06.346Z,80.29
2018-03-08T03:29:06.340Z,80.29
2018-03-08T03:30:06.335Z,80.67
2018-03-08T03:31:06.333Z,80.67
2018-03-08T03:32:06.324Z,80.29
2018-03-08T03:33:06.319Z,80.44
2018-03-08T03:34:06.313Z,80.38
2018-03-08T03:35:06.306Z,80.44
2018-03-08T03:36:06.303Z,80.76
2018-03-08T03:37:06.295Z,80.86
2018-03-08T03:38:06.291Z,80.95
2018-03-08T03:39:06.284Z,80.48
2018-03-08T03:40:06.279Z,80.10
2018-03-08T03:41:06.273Z,80.38
2018-03-08T03:42:06.267Z,81.01
2018-03-08T03:43:06.261Z,81.57
2018-03-08T03:44:06.257Z,80.72
2018-03-08T03:45:06.252Z,81.10
2018-03-08T03:46:06.247Z,81.38
2018-03-08T03:47:06.238Z,80.72
2018-03-08T03:48:06.233Z,80.82
2018-03-08T03:49:06.226Z,81.20
2018-03-08T03:50:06.222Z,81.38
2018-03-08T03:51:06.219Z,80.72
2018-03-08T03:52:06.211Z,80.15
2018-03-08T03:53:06.204Z,79.58
2018-03-08T03:54:06.198Z,79.58
2018-03-08T03:55:06.193Z,79.02
2018-03-08T03:56:06.187Z,79.02
2018-03-08T03:57:06.182Z,78.54
2018-03-08T03:58:06.176Z,77.88
2018-03-08T03:59:06.169Z,78.26
2018-03-08T04:00:06.164Z,77.69
2018-03-08T04:01:06.158Z,77.97
2018-03-08T04:02:06.152Z,77.69
2018-03-08T04:03:06.146Z,78.35
2018-03-08T04:04:06.141Z,78.16
2018-03-08T04:05:06.137Z,77.88
2018-03-08T04:06:06.128Z,77.64
2018-03-08T04:07:06.122Z,77.64
2018-03-08T04:08:06.118Z,77.16
2018-03-08T04:09:06.109Z,77.64
2018-03-08T04:10:06.103Z,77.73
2018-03-08T04:11:06.097Z,77.64
2018-03-08T04:12:06.092Z,77.64
2018-03-08T04:13:06.085Z,78.39
2018-03-08T04:14:06.079Z,78.02
2018-03-08T04:15:06.074Z,77.83
2018-03-08T04:16:06.068Z,77.83
2018-03-08T04:17:06.061Z,77.64
2018-03-08T04:18:06.056Z,77.64
2018-03-08T04:19:06.053Z,78.11
2018-03-08T04:20:06.047Z,77.73
2018-03-08T04:21:06.039Z,77.83
2018-03-08T04:22:06.033Z,77.73
2018-03-08T04:23:06.028Z,78.11
2018-03-08T04:24:06.021Z,78.02
2018-03-08T04:25:06.016Z,78.20
2018-03-08T04:26:06.013Z,78.30
2018-03-08T04:27:06.005Z,78.39
2018-03-08T04:28:05.998Z,78.11
2018-03-08T04:29:05.993Z,78.20
2018-03-08T04:30:05.988Z,78.02
2018-03-08T04:31:05.981Z,78.87
2018-03-08T04:32:05.976Z,78.67
2018-03-08T04:33:05.970Z,78.87
2018-03-08T04:34:05.965Z,79.15
2018-03-08T04:35:05.959Z,78.96
2018-03-08T04:36:05.951Z,78.73
2018-03-08T04:37:05.949Z,78.83
2018-03-08T04:38:05.940Z,79.02
2018-03-08T04:39:05.935Z,79.49
2018-03-08T04:40:05.930Z,79.87
2018-03-08T04:41:05.929Z,79.68
2018-03-08T04:42:05.919Z,79.68
2018-03-08T04:43:05.912Z,79.77
2018-03-08T04:44:05.907Z,80.25
2018-03-08T04:45:05.900Z,80.44
2018-03-08T04:46:05.898Z,80.72
2018-03-08T04:47:05.890Z,81.20
2018-03-08T04:48:05.885Z,81.29
2018-03-08T04:49:05.877Z,81.29
2018-03-08T04:50:05.873Z,81.29
2018-03-08T04:51:05.867Z,81.86
2018-03-08T04:52:05.862Z,81.38
2018-03-08T04:53:05.854Z,81.67
2018-03-08T04:54:05.849Z,81.86
2018-03-08T04:55:06.014Z,81.48
2018-03-08T04:56:05.837Z,81.76
2018-03-08T04:57:05.830Z,82.14
2018-03-08T04:58:05.824Z,82.43
2018-03-08T04:59:05.819Z,82.43
2018-03-08T05:00:05.815Z,82.24
2018-03-08T05:01:05.808Z,82.05
2018-03-08T05:02:05.800Z,81.86
2018-03-08T05:03:05.794Z,82.05
2018-03-08T05:04:05.789Z,82.05
2018-03-08T05:05:05.784Z,81.95
2018-03-08T05:06:05.780Z,81.01
2018-03-08T05:07:05.773Z,81.76
2018-03-08T05:08:05.766Z,81.86
2018-03-08T05:09:05.759Z,81.67
2018-03-08T05:10:05.759Z,81.29
2018-03-08T05:11:05.748Z,81.01
2018-03-08T05:12:05.742Z,80.63
2018-03-08T05:13:05.735Z,80.25
2018-03-08T05:14:05.730Z,80.34
2018-03-08T05:15:05.724Z,80.15
2018-03-08T05:16:05.719Z,80.15
2018-03-08T05:17:05.712Z,81.10
2018-03-08T05:18:05.707Z,80.82
2018-03-08T05:19:05.705Z,79.39
2018-03-08T05:20:05.695Z,79.87
2018-03-08T05:21:05.688Z,79.11
2018-03-08T05:22:05.683Z,79.30
2018-03-08T05:23:05.677Z,79.58
2018-03-08T05:24:05.672Z,79.58
2018-03-08T05:25:05.665Z,79.63
2018-03-08T05:26:05.660Z,79.39
2018-03-08T05:27:05.654Z,79.96
2018-03-08T05:28:05.649Z,79.49
2018-03-08T05:29:05.643Z,79.77
2018-03-08T05:30:05.638Z,79.68
2018-03-08T05:31:05.631Z,80.25
2018-03-08T05:32:05.625Z,80.63
2018-03-08T05:33:05.620Z,80.44
2018-03-08T05:34:05.613Z,80.25
2018-03-08T05:35:05.615Z,80.44
2018-03-08T05:36:05.602Z,79.49
2018-03-08T05:37:05.596Z,79.77
2018-03-08T05:38:05.590Z,79.39
2018-03-08T05:39:05.585Z,79.68
2018-03-08T05:40:05.595Z,79.49
2018-03-08T05:41:05.572Z,79.11
2018-03-08T05:42:05.567Z,78.35
2018-03-08T05:43:05.561Z,78.83
2018-03-08T05:44:05.555Z,79.39
2018-03-08T05:45:05.553Z,78.92
2018-03-08T05:46:05.544Z,78.92
2018-03-08T05:47:05.543Z,79.02
2018-03-08T05:48:05.537Z,78.83
2018-03-08T05:49:05.527Z,78.83
2018-03-08T05:50:05.520Z,79.21
2018-03-08T05:51:05.516Z,79.39
2018-03-08T05:52:05.510Z,79.77
2018-03-08T05:53:05.504Z,79.49
2018-03-08T05:54:05.497Z,78.92
2018-03-08T05:55:05.494Z,78.67
2018-03-08T05:56:05.486Z,78.96
2018-03-08T05:57:05.485Z,78.77
2018-03-08T05:58:05.474Z,79.06
2018-03-08T05:59:05.469Z,78.58
2018-03-08T06:00:05.465Z,78.87
2018-03-08T06:01:05.456Z,78.67
2018-03-08T06:02:05.451Z,78.58
2018-03-08T06:03:05.445Z,79.34
2018-03-08T06:04:05.439Z,78.87
2018-03-08T06:05:05.434Z,79.39
2018-03-08T06:06:05.427Z,79.49
2018-03-08T06:07:05.422Z,79.77
2018-03-08T06:08:05.417Z,80.44
2018-03-08T06:09:05.410Z,80.44
2018-03-08T06:10:05.405Z,80.44
2018-03-08T06:11:05.400Z,80.63
2018-03-08T06:12:05.394Z,80.53
2018-03-08T06:13:05.388Z,80.63
2018-03-08T06:14:05.382Z,81.10
2018-03-08T06:15:05.377Z,81.01
2018-03-08T06:16:05.372Z,81.01
2018-03-08T06:17:05.366Z,80.82
2018-03-08T06:18:05.358Z,81.20
2018-03-08T06:19:05.355Z,81.20
2018-03-08T06:20:05.350Z,81.38
2018-03-08T06:21:05.342Z,81.20
2018-03-08T06:22:05.337Z,81.57
2018-03-08T06:23:05.331Z,80.53
2018-03-08T06:24:05.325Z,81.20
2018-03-08T06:25:05.319Z,81.10
2018-03-08T06:26:05.315Z,80.63
2018-03-08T06:27:05.311Z,80.25
2018-03-08T06:28:05.304Z,80.25
2018-03-08T06:29:05.300Z,80.25
2018-03-08T06:30:05.290Z,80.06
2018-03-08T06:31:05.288Z,80.63
2018-03-08T06:32:05.281Z,80.44
2018-03-08T06:33:05.275Z,79.39
2018-03-08T06:34:05.268Z,79.68
2018-03-08T06:35:05.263Z,79.49
2018-03-08T06:36:05.256Z,79.68
2018-03-08T06:37:05.251Z,79.49
2018-03-08T06:38:05.245Z,79.72
2018-03-08T06:39:05.240Z,79.82
2018-03-08T06:40:05.233Z,79.53
2018-03-08T06:41:05.229Z,79.82
2018-03-08T06:42:05.222Z,79.72
2018-03-08T06:43:05.218Z,80.63
2018-03-08T06:44:05.212Z,80.19
2018-03-08T06:45:05.207Z,80.63
2018-03-08T06:46:05.201Z,80.72
2018-03-08T06:47:05.196Z,80.53
2018-03-08T06:48:05.191Z,79.39
2018-03-08T06:49:05.184Z,79.21
2018-03-08T06:50:05.178Z,79.58
2018-03-08T06:51:05.174Z,79.39
2018-03-08T06:52:05.169Z,79.87
2018-03-08T06:53:05.161Z,79.25
2018-03-08T06:54:05.158Z,78.87
2018-03-08T06:55:05.152Z,78.83
2018-03-08T06:56:05.147Z,78.92
2018-03-08T06:57:05.141Z,79.49
2018-03-08T06:58:05.134Z,79.58
2018-03-08T06:59:05.130Z,80.53
2018-03-08T07:00:05.125Z,80.44
2018-03-08T07:01:05.118Z,80.63
2018-03-08T07:02:05.115Z,79.49
2018-03-08T07:03:05.106Z,79.82
2018-03-08T07:04:05.102Z,79.72
2018-03-08T07:05:05.101Z,79.68
2018-03-08T07:06:05.090Z,79.82
2018-03-08T07:07:05.085Z,79.53
2018-03-08T07:08:05.080Z,79.34
2018-03-08T07:09:05.073Z,79.53
2018-03-08T07:10:05.069Z,79.15
2018-03-08T07:11:05.063Z,79.15
2018-03-08T07:12:05.058Z,78.87
2018-03-08T07:13:05.051Z,79.06
2018-03-08T07:14:05.047Z,78.96
2018-03-08T07:15:05.041Z,78.39
2018-03-08T07:16:05.084Z,78.30
2018-03-08T07:17:05.030Z,77.92
2018-03-08T07:18:05.025Z,78.02
2018-03-08T07:19:05.021Z,77.06
2018-03-08T07:20:05.016Z,77.25
2018-03-08T07:21:05.010Z,76.73
2018-03-08T07:22:05.005Z,75.59
2018-03-08T07:23:05.001Z,74.45
2018-03-08T07:24:04.996Z,74.54
2018-03-08T07:25:04.990Z,74.20
2018-03-08T07:26:04.985Z,72.97
2018-03-08T07:27:04.982Z,72.21
2018-03-08T07:28:04.978Z,72.21
2018-03-08T07:29:04.972Z,72.02
2018-03-08T07:30:04.968Z,71.83
2018-03-08T07:31:04.964Z,71.58
2018-03-08T07:32:04.963Z,70.15
2018-03-08T07:33:04.956Z,68.19
2018-03-08T07:34:04.953Z,66.84
2018-03-08T07:35:04.953Z,62.53
2018-03-08T07:36:04.950Z,60.31
2018-03-08T07:37:04.946Z,61.42
2018-03-08T07:38:04.944Z,62.91
2018-03-08T07:39:04.947Z,64.05
2018-03-08T07:40:04.942Z,65.82
2018-03-08T07:41:04.939Z,67.06
2018-03-08T07:42:04.938Z,67.82
2018-03-08T07:43:04.936Z,68.16
2018-03-08T07:44:04.934Z,68.83
2018-03-08T07:45:05.326Z,69.68
2018-03-08T07:46:04.928Z,69.21
2018-03-08T07:47:04.926Z,69.84
2018-03-08T07:48:04.925Z,69.78
2018-03-08T07:49:04.922Z,70.21
2018-03-08T07:50:04.919Z,70.31
2018-03-08T07:51:04.916Z,71.26
2018-03-08T07:52:04.914Z,71.07
2018-03-08T07:53:04.912Z,71.73
2018-03-08T07:54:04.908Z,71.07
2018-03-08T07:55:04.910Z,71.26
2018-03-08T07:56:04.902Z,70.54
2018-03-08T07:57:04.900Z,68.86
2018-03-08T07:58:04.897Z,66.90
2018-03-08T07:59:04.897Z,65.76
2018-03-08T08:00:04.896Z,64.18
2018-03-08T08:01:04.890Z,62.97
2018-03-08T08:02:04.888Z,60.72
2018-03-08T08:03:04.893Z,58.30
2018-03-08T08:04:04.886Z,55.00
2018-03-08T08:05:04.891Z,53.69
2018-03-08T08:06:04.884Z,51.68
2018-03-08T08:07:04.884Z,50.85
2018-03-08T08:08:04.888Z,49.99
2018-03-08T08:09:04.885Z,50.35
2018-03-08T08:10:04.883Z,52.04
2018-03-08T08:11:04.884Z,52.42
2018-03-08T08:12:04.885Z,51.92
2018-03-08T08:13:04.885Z,51.99
2018-03-08T08:14:04.885Z,53.80
2018-03-08T08:15:04.887Z,55.04
2018-03-08T08:16:04.891Z,54.97
2018-03-08T08:17:04.889Z,53.73
2018-03-08T08:18:04.892Z,53.44
2018-03-08T08:19:04.893Z,52.80
2018-03-08T08:20:04.896Z,50.83
2018-03-08T08:21:04.951Z,50.54
2018-03-08T08:22:04.900Z,49.78
2018-03-08T08:23:04.904Z,49.78
2018-03-08T08:24:04.907Z,49.52
2018-03-08T08:25:04.910Z,48.35
2018-03-08T08:26:04.915Z,46.56
2018-03-08T08:27:04.919Z,46.37
2018-03-08T08:28:04.923Z,45.99
2018-03-08T08:29:04.928Z,45.61
2018-03-08T08:30:04.932Z,45.99
2018-03-08T08:31:04.942Z,45.61
2018-03-08T08:32:04.943Z,46.30
2018-03-08T08:33:04.947Z,44.79
2018-03-08T08:34:04.953Z,43.55
2018-03-08T08:35:04.960Z,41.74
2018-03-08T08:36:04.966Z,40.88
2018-03-08T08:37:04.968Z,40.69
2018-03-08T08:38:04.975Z,40.59
2018-03-08T08:39:04.979Z,40.78
2018-03-08T08:40:04.987Z,40.86
2018-03-08T08:41:04.989Z,41.50
2018-03-08T08:42:04.994Z,42.82
2018-03-08T08:43:04.999Z,44.51
2018-03-08T08:44:05.004Z,46.70
2018-03-08T08:45:05.012Z,46.89
2018-03-08T08:46:05.011Z,48.23
2018-03-08T08:47:05.015Z,47.92
2018-03-08T08:48:05.018Z,47.99
2018-03-08T08:49:05.021Z,48.47
2018-03-08T08:50:05.023Z,49.32
2018-03-08T08:51:05.030Z,49.35
2018-03-08T08:52:05.033Z,46.80
2018-03-08T08:53:05.033Z,45.49
2018-03-08T08:54:05.038Z,42.93
2018-03-08T08:55:05.042Z,41.33
2018-03-08T08:56:05.043Z,40.30
2018-03-08T08:57:05.046Z,39.25
2018-03-08T08:58:05.053Z,38.03
2018-03-08T08:59:05.057Z,37.66
2018-03-08T09:00:05.064Z,37.09
2018-03-08T09:01:05.069Z,36.82
2018-03-08T09:02:05.074Z,35.69
2018-03-08T09:03:05.082Z,34.08
2018-03-08T09:04:05.089Z,32.67
2018-03-08T09:05:05.096Z,30.94
2018-03-08T09:06:05.108Z,31.24
2018-03-08T09:07:05.111Z,30.76
2018-03-08T09:08:05.119Z,29.90
2018-03-08T09:09:05.126Z,29.04
2018-03-08T09:10:05.135Z,30.09
2018-03-08T09:11:05.143Z,30.19
2018-03-08T09:12:05.152Z,30.19
2018-03-08T09:13:05.161Z,30.19
2018-03-08T09:14:05.168Z,30.29
2018-03-08T09:15:05.178Z,29.71
2018-03-08T09:16:05.185Z,31.51
2018-03-08T09:17:05.197Z,31.04
2018-03-08T09:18:05.204Z,31.42
2018-03-08T09:19:05.213Z,32.17
2018-03-08T09:20:05.222Z,33.65
2018-03-08T09:21:05.242Z,35.26
2018-03-08T09:22:05.236Z,35.62
2018-03-08T09:23:05.244Z,35.53
2018-03-08T09:24:05.252Z,35.62
2018-03-08T09:25:05.260Z,36.85
2018-03-08T09:26:05.265Z,38.64
2018-03-08T09:27:05.271Z,39.86
2018-03-08T09:28:05.277Z,41.67
2018-03-08T09:29:05.285Z,41.56
2018-03-08T09:30:05.289Z,42.34
2018-03-08T09:31:05.297Z,43.01
2018-03-08T09:32:05.299Z,42.84
2018-03-08T09:33:05.303Z,40.37
2018-03-08T09:34:05.309Z,38.28
2018-03-08T09:35:05.312Z,38.18
2018-03-08T09:36:05.319Z,37.32
2018-03-08T09:37:05.323Z,37.61
2018-03-08T09:38:05.327Z,38.95
2018-03-08T09:39:05.331Z,39.98
2018-03-08T09:40:05.338Z,40.36
2018-03-08T09:41:05.342Z,40.63
2018-03-08T09:42:05.345Z,40.81
2018-03-08T09:43:05.349Z,41.56
2018-03-08T09:44:05.354Z,41.94
2018-03-08T09:45:05.357Z,42.41
2018-03-08T09:46:05.361Z,42.41
2018-03-08T09:47:05.366Z,42.03
2018-03-08T09:48:05.367Z,42.24
2018-03-08T09:49:05.370Z,41.67
2018-03-08T09:50:05.373Z,40.26
2018-03-08T09:51:05.376Z,39.00
2018-03-08T09:52:05.382Z,39.58
2018-03-08T09:53:05.380Z,39.59
2018-03-08T09:54:05.386Z,39.10
2018-03-08T09:55:05.384Z,39.98
2018-03-08T09:56:05.389Z,39.31
2018-03-08T09:57:05.391Z,37.49
2018-03-08T09:58:05.393Z,37.99
2018-03-08T09:59:05.417Z,37.13
2018-03-08T10:00:05.399Z,35.99
2018-03-08T10:01:05.403Z,35.78
2018-03-08T10:02:05.408Z,36.46
2018-03-08T10:03:05.408Z,36.46
2018-03-08T10:04:05.412Z,35.62
2018-03-08T10:05:05.415Z,35.72
2018-03-08T10:06:05.419Z,35.93
2018-03-08T10:07:05.436Z,33.84
2018-03-08T10:08:05.428Z,32.60
2018-03-08T10:09:05.433Z,31.93
2018-03-08T10:10:05.439Z,33.28
2018-03-08T10:11:05.445Z,34.14
2018-03-08T10:12:05.451Z,34.91
2018-03-08T10:13:05.670Z,33.48
2018-03-08T10:14:05.763Z,34.26
2018-03-08T10:15:05.471Z,32.82
2018-03-08T10:16:05.477Z,33.22
2018-03-08T10:17:05.483Z,33.81
2018-03-08T10:18:05.490Z,32.59
2018-03-08T10:19:05.499Z,31.45
2018-03-08T10:20:05.506Z,30.29
2018-03-08T10:21:05.513Z,29.91
2018-03-08T10:22:05.522Z,29.24
2018-03-08T10:23:05.530Z,29.64
2018-03-08T10:24:05.540Z,29.45
2018-03-08T10:25:05.549Z,30.02
2018-03-08T10:26:05.612Z,30.04
2018-03-08T10:27:05.566Z,29.75
2018-03-08T10:28:05.576Z,29.00
2018-03-08T10:29:05.584Z,26.98
2018-03-08T10:30:05.597Z,26.60
2018-03-08T10:31:05.605Z,28.23
2018-03-08T10:32:05.615Z,30.35
2018-03-08T10:33:05.625Z,28.14
2018-03-08T10:34:05.635Z,26.60
2018-03-08T10:35:05.645Z,28.71
2018-03-08T10:36:05.656Z,27.84
2018-03-08T10:37:05.665Z,28.14
2018-03-08T10:38:05.677Z,27.08
2018-03-08T10:40:05.700Z,28.14
2018-03-08T10:41:05.779Z,26.79
2018-03-08T10:42:05.720Z,26.50
2018-03-08T10:43:05.732Z,26.78
2018-03-08T10:44:05.742Z,27.75
2018-03-08T10:45:05.754Z,26.40
2018-03-08T10:46:05.763Z,26.09
2018-03-08T10:47:05.775Z,26.57
2018-03-08T10:48:05.784Z,27.71
2018-03-08T10:49:05.809Z,27.52
2018-03-08T10:50:05.807Z,27.14
2018-03-08T10:51:05.817Z,28.09
2018-03-08T10:52:05.829Z,28.19
2018-03-08T10:53:05.840Z,27.70
2018-03-08T10:54:05.850Z,28.06
2018-03-08T10:55:05.860Z,28.92
2018-03-08T10:56:05.872Z,29.97
2018-03-08T10:57:05.889Z,30.26
2018-03-08T10:58:05.892Z,31.01
2018-03-08T10:59:05.902Z,30.43
2018-03-08T11:00:05.913Z,31.88
2018-03-08T11:01:05.922Z,30.06
2018-03-08T11:02:06.213Z,31.13
2018-03-08T11:03:06.926Z,29.79
2018-03-08T11:04:05.955Z,29.60
2018-03-08T11:05:05.996Z,30.06
2018-03-08T11:06:05.973Z,30.16
2018-03-08T11:07:05.982Z,30.24
2018-03-08T11:08:05.993Z,30.33
2018-03-08T11:09:06.001Z,30.62
2018-03-08T11:10:06.011Z,30.35
2018-03-08T11:11:06.021Z,30.18
2018-03-08T11:12:06.033Z,29.31
2018-03-08T11:13:06.039Z,29.12
2018-03-08T11:14:06.049Z,28.33
2018-03-08T11:15:06.058Z,29.09
2018-03-08T11:16:06.068Z,29.65
2018-03-08T11:17:06.077Z,29.92
2018-03-08T11:18:06.088Z,31.16
2018-03-08T11:19:06.094Z,32.62
2018-03-08T11:20:06.103Z,32.23
2018-03-08T11:21:06.110Z,30.98
2018-03-08T11:22:06.118Z,32.71
2018-03-08T11:23:06.133Z,33.48
2018-03-08T11:24:06.136Z,33.87
2018-03-08T11:25:06.144Z,33.78
2018-03-08T11:26:06.154Z,31.38
2018-03-08T11:27:06.160Z,33.03
2018-03-08T11:28:06.168Z,32.95
2018-03-08T11:29:06.174Z,31.99
2018-03-08T11:30:06.183Z,33.91
2018-03-08T11:31:06.192Z,33.24
2018-03-08T11:32:06.199Z,32.47
2018-03-08T11:33:06.207Z,31.80
2018-03-08T11:34:06.215Z,33.53
2018-03-08T11:35:06.223Z,31.43
2018-03-08T11:36:06.240Z,30.94
2018-03-08T11:37:06.238Z,29.98
2018-03-08T11:38:06.246Z,27.86
2018-03-08T11:39:06.270Z,28.81
2018-03-08T11:40:06.261Z,30.26
2018-03-08T11:41:06.271Z,32.84
2018-03-08T11:42:06.275Z,33.41
2018-03-08T11:43:06.284Z,32.86
2018-03-08T11:44:06.294Z,30.08
2018-03-08T11:45:06.297Z,28.64
2018-03-08T11:46:06.645Z,29.68
2018-03-08T11:47:06.314Z,32.17
2018-03-08T11:48:06.322Z,34.36
2018-03-08T11:49:06.327Z,35.69
2018-03-08T11:50:06.335Z,35.02
2018-03-08T11:51:06.342Z,36.65
2018-03-08T11:52:06.351Z,34.08
2018-03-08T11:53:06.355Z,32.44
2018-03-08T11:54:06.362Z,32.25
2018-03-08T11:55:06.370Z,32.44
2018-03-08T11:56:06.378Z,32.54
2018-03-08T11:57:06.384Z,33.40
2018-03-08T11:58:06.389Z,33.78
2018-03-08T11:59:06.397Z,32.82
2018-03-08T12:00:06.405Z,33.87
2018-03-08T12:01:06.410Z,32.23
2018-03-08T12:02:06.418Z,31.47
2018-03-08T12:03:06.423Z,31.35
2018-03-08T12:04:06.435Z,32.58
2018-03-08T12:05:06.435Z,33.54
2018-03-08T12:06:06.441Z,36.60
2018-03-08T12:07:06.449Z,37.36
2018-03-08T12:08:06.453Z,35.85
2018-03-08T12:09:06.457Z,34.80
2018-03-08T12:10:06.464Z,34.89
2018-03-08T12:11:06.476Z,33.94
2018-03-08T12:12:06.479Z,33.84
2018-03-08T12:13:06.480Z,34.61
2018-03-08T12:14:06.488Z,34.70
2018-03-08T12:15:06.490Z,34.80
2018-03-08T12:16:06.494Z,33.56
2018-03-08T12:17:06.525Z,32.68
2018-03-08T12:18:06.504Z,33.25
2018-03-08T12:19:06.509Z,33.91
2018-03-08T12:20:06.515Z,36.48
2018-03-08T12:21:06.516Z,35.83
2018-03-08T12:22:06.522Z,36.88
2018-03-08T12:23:06.529Z,37.65
2018-03-08T12:24:06.531Z,35.64
2018-03-08T12:25:06.535Z,34.01
2018-03-08T12:26:06.539Z,34.30
2018-03-08T12:27:06.544Z,33.65
2018-03-08T12:28:06.593Z,32.50
2018-03-08T12:29:06.553Z,32.21
2018-03-08T12:30:06.559Z,33.36
2018-03-08T12:31:06.563Z,32.62
2018-03-08T12:32:06.572Z,31.56
2018-03-08T12:33:06.576Z,29.74
2018-03-08T12:34:06.579Z,29.84
2018-03-08T12:35:06.583Z,29.36
2018-03-08T12:36:06.592Z,29.25
2018-03-08T12:37:06.593Z,30.02
2018-03-08T12:38:06.598Z,31.93
2018-03-08T12:39:06.605Z,33.17
2018-03-08T12:40:06.609Z,33.67
2018-03-08T12:41:06.614Z,32.81
2018-03-08T12:42:06.619Z,31.76
2018-03-08T12:43:06.624Z,31.38
2018-03-08T12:44:06.629Z,30.81
2018-03-08T12:45:06.635Z,30.24
2018-03-08T12:46:06.639Z,31.01
2018-03-08T12:47:06.644Z,28.42
2018-03-08T12:48:06.652Z,28.52
2018-03-08T12:49:06.657Z,30.05
2018-03-08T12:50:06.660Z,30.43
2018-03-08T12:51:06.669Z,32.73
2018-03-08T12:52:06.674Z,30.72
2018-03-08T12:53:06.678Z,28.23
2018-03-08T12:54:06.685Z,28.04